createdAt,value
2022-08-09T00:02:30.121Z,25.05
2022-08-09T00:07:44.465Z,24.98
2022-08-09T00:12:58.453Z,25.01
2022-08-09T00:18:05.171Z,25.00
2022-08-09T00:23:55.112Z,25.01
2022-08-09T00:28:39.970Z,25.03
2022-08-09T00:33:50.816Z,25.03
2022-08-09T00:38:55.103Z,25.07
2022-08-09T00:44:11.382Z,25.10
2022-08-09T00:49:21.970Z,25.12
2022-08-09T00:54:31.448Z,25.12
2022-08-09T00:59:46.444Z,25.13
2022-08-09T01:05:51.643Z,25.10
2022-08-09T01:11:09.924Z,25.07
2022-08-09T01:16:23.629Z,25.05
2022-08-09T01:21:50.852Z,25.05
2022-08-09T01:27:11.921Z,25.06
2022-08-09T01:32:31.214Z,25.07
2022-08-09T01:38:07.748Z,25.09
2022-08-09T01:43:10.429Z,25.06
2022-08-09T01:48:16.166Z,25.01
2022-08-09T01:53:21.900Z,24.98
2022-08-09T01:58:31.099Z,24.95
2022-08-09T02:03:42.316Z,24.91
2022-08-09T02:08:58.476Z,24.87
2022-08-09T02:14:07.188Z,24.84
2022-08-09T02:19:12.027Z,24.80
2022-08-09T02:24:26.155Z,24.81
2022-08-09T02:29:40.884Z,24.82
2022-08-09T02:34:51.663Z,24.83
2022-08-09T02:40:09.312Z,24.87
2022-08-09T02:45:35.718Z,24.91
2022-08-09T02:50:45.596Z,24.91
2022-08-09T02:55:58.376Z,24.92
2022-08-09T03:01:04.551Z,24.92
2022-08-09T03:06:10.690Z,24.97
2022-08-09T03:12:04.330Z,24.98
2022-08-09T03:16:48.612Z,25.00
2022-08-09T03:21:52.477Z,25.04
2022-08-09T03:26:56.504Z,25.10
2022-08-09T03:32:00.977Z,25.15
2022-08-09T03:37:54.388Z,25.22
2022-08-09T03:42:30.862Z,25.28
2022-08-09T03:47:36.667Z,25.38
2022-08-09T03:52:44.965Z,25.50
2022-08-09T03:57:57.515Z,25.61
2022-08-09T04:03:11.737Z,25.69
2022-08-09T04:08:18.735Z,25.76
2022-08-09T04:14:37.008Z,25.89
2022-08-09T04:18:58.547Z,25.95
2022-08-09T04:24:02.328Z,26.10
2022-08-09T04:29:10.868Z,26.25
2022-08-09T04:34:18.887Z,26.33
2022-08-09T04:39:34.134Z,26.37
2022-08-09T04:44:49.381Z,26.45
2022-08-09T04:49:55.573Z,26.59
2022-08-09T04:55:02.605Z,26.63
2022-08-09T05:00:12.392Z,26.63
2022-08-09T05:05:31.538Z,26.65
2022-08-09T05:10:38.887Z,26.71
2022-08-09T05:15:52.113Z,26.73
2022-08-09T05:21:00.928Z,26.95
2022-08-09T05:26:04.765Z,26.93
2022-08-09T05:31:09.432Z,27.02
2022-08-09T05:36:15.538Z,27.19
2022-08-09T05:41:19.073Z,27.11
2022-08-09T05:46:22.693Z,27.33
2022-08-09T05:51:42.311Z,27.42
2022-08-09T05:56:54.501Z,27.58
2022-08-09T06:01:59.167Z,27.72
2022-08-09T06:07:03.804Z,28.10
2022-08-09T06:12:08.010Z,29.41
2022-08-09T06:17:11.453Z,31.47
2022-08-09T06:22:29.870Z,33.80
2022-08-09T06:27:42.731Z,35.81
2022-08-09T06:33:00.648Z,36.44
2022-08-09T06:38:15.946Z,35.13
2022-08-09T06:43:19.484Z,34.56
2022-08-09T06:48:26.089Z,36.20
2022-08-09T06:53:38.021Z,37.06
2022-08-09T07:00:52.795Z,35.71
2022-08-09T07:04:05.245Z,33.53
2022-08-09T07:09:53.522Z,32.56
2022-08-09T07:14:32.987Z,31.38
2022-08-09T07:19:37.676Z,30.47
2022-08-09T07:24:49.191Z,29.70
2022-08-09T07:29:53.754Z,29.79
2022-08-09T07:35:08.123Z,29.82
2022-08-09T07:40:18.694Z,29.39
2022-08-09T07:45:37.428Z,29.54
2022-08-09T07:50:52.805Z,29.70
2022-08-09T07:56:26.495Z,30.15
2022-08-09T08:01:32.914Z,30.25
2022-08-09T08:06:37.547Z,29.94
2022-08-09T08:12:25.040Z,29.92
2022-08-09T08:17:52.128Z,30.10
2022-08-09T08:22:50.630Z,30.62
2022-08-09T08:27:59.561Z,30.61
2022-08-09T08:33:04.427Z,30.54
2022-08-09T08:38:11.539Z,30.88
2022-08-09T08:43:17.302Z,31.36
2022-08-09T08:48:31.133Z,31.60
2022-08-09T08:53:37.311Z,31.86
2022-08-09T08:58:44.400Z,31.65
2022-08-09T09:03:50.987Z,31.34
2022-08-09T09:08:59.477Z,31.51
2022-08-09T09:14:18.356Z,31.60
2022-08-09T09:19:37.364Z,31.55
2022-08-09T09:24:49.385Z,31.54
2022-08-09T09:30:13.844Z,31.60
2022-08-09T09:35:18.726Z,31.68
2022-08-09T09:40:46.131Z,31.81
2022-08-09T09:45:57.450Z,31.86
2022-08-09T09:51:26.204Z,31.75
2022-08-09T09:56:53.373Z,31.61
2022-08-09T10:02:08.963Z,31.55
2022-08-09T10:07:27.024Z,31.42
2022-08-09T10:12:43.840Z,31.24
2022-08-09T10:17:56.711Z,31.10
2022-08-09T10:23:22.244Z,31.00
2022-08-09T10:28:25.977Z,30.87
2022-08-09T10:34:10.231Z,30.76
2022-08-09T10:39:00.017Z,30.74
2022-08-09T10:44:04.550Z,30.77
2022-08-09T10:49:42.436Z,30.90
2022-08-09T10:54:54.824Z,30.74
2022-08-09T11:00:01.711Z,30.68
2022-08-09T11:05:25.116Z,30.61
2022-08-09T11:10:47.051Z,30.52
2022-08-09T11:16:35.491Z,30.47
2022-08-09T11:22:19.047Z,30.42
2022-08-09T11:28:02.297Z,30.50
2022-08-09T11:33:40.670Z,30.50
2022-08-09T11:39:01.413Z,30.49
2022-08-09T11:44:05.076Z,30.48
2022-08-09T11:49:08.532Z,30.41
2022-08-09T11:54:28.485Z,30.29
2022-08-09T11:59:37.976Z,30.23
2022-08-09T12:04:41.923Z,30.15
2022-08-09T12:09:50.848Z,30.15
2022-08-09T12:15:08.356Z,30.12
2022-08-09T12:20:21.568Z,30.05
2022-08-09T12:25:36.210Z,29.98
2022-08-09T12:30:41.416Z,29.86
2022-08-09T12:35:45.934Z,29.81
2022-08-09T12:40:54.088Z,29.77
2022-08-09T12:46:00.988Z,29.73
2022-08-09T12:51:04.552Z,29.73
2022-08-09T12:56:39.668Z,29.69
2022-08-09T13:01:50.187Z,29.61
2022-08-09T13:06:54.102Z,29.53
2022-08-09T13:12:03.855Z,29.37
2022-08-09T13:17:21.853Z,29.24
2022-08-09T13:23:05.781Z,29.18
2022-08-09T13:28:18.934Z,29.25
2022-08-09T13:33:53.496Z,29.12
2022-08-09T13:41:17.809Z,28.90
2022-08-09T13:44:25.066Z,28.90
2022-08-09T13:49:37.981Z,29.00
2022-08-09T13:54:59.902Z,28.88
2022-08-09T14:00:13.861Z,28.86
2022-08-09T14:05:58.863Z,28.86
2022-08-09T14:10:52.275Z,28.77
2022-08-09T14:16:10.241Z,28.74
2022-08-09T14:21:15.453Z,28.92
2022-08-09T14:26:19.457Z,28.99
2022-08-09T14:31:36.199Z,28.96
2022-08-09T14:36:48.915Z,28.91
2022-08-09T14:41:52.679Z,28.74
2022-08-09T14:47:12.514Z,28.61
2022-08-09T14:52:19.516Z,28.45
2022-08-09T14:57:23.287Z,28.42
2022-08-09T15:02:36.164Z,28.52
2022-08-09T15:07:41.204Z,28.47
2022-08-09T15:12:49.840Z,28.41
2022-08-09T15:17:53.495Z,28.22
2022-08-09T15:23:02.951Z,28.12
2022-08-09T15:28:27.954Z,28.07
2022-08-09T15:34:17.281Z,27.99
2022-08-09T15:38:56.456Z,27.85
2022-08-09T15:44:01.988Z,27.76
2022-08-09T15:49:22.975Z,27.65
2022-08-09T15:54:44.715Z,27.53
2022-08-09T15:59:52.581Z,27.49
2022-08-09T16:05:02.404Z,27.42
2022-08-09T16:10:17.262Z,27.28
2022-08-09T16:16:11.573Z,27.19
2022-08-09T16:20:59.943Z,27.06
2022-08-09T16:26:06.846Z,26.95
2022-08-09T16:32:10.370Z,26.84
2022-08-09T16:36:46.713Z,26.79
2022-08-09T16:42:04.125Z,26.74
2022-08-09T16:48:39.302Z,26.69
2022-08-09T16:52:32.475Z,26.66
2022-08-09T16:58:09.194Z,26.58
2022-08-09T17:02:59.404Z,26.53
2022-08-09T17:08:46.216Z,26.50
2022-08-09T17:13:26.687Z,26.47
2022-08-09T17:18:38.049Z,26.41
2022-08-09T17:24:27.489Z,26.39
2022-08-09T17:29:11.668Z,26.34
2022-08-09T17:35:01.350Z,26.30
2022-08-09T17:39:53.505Z,26.25
2022-08-09T17:44:58.620Z,26.22
2022-08-09T17:50:17.348Z,26.21
2022-08-09T17:55:47.279Z,26.25
2022-08-09T18:00:56.412Z,26.22
2022-08-09T18:06:01.884Z,26.21
2022-08-09T18:11:05.588Z,26.24
2022-08-09T18:16:12.020Z,26.20
2022-08-09T18:21:22.932Z,26.14
2022-08-09T18:26:27.741Z,26.11
2022-08-09T18:31:32.489Z,26.14
2022-08-09T18:36:55.138Z,26.17
2022-08-09T18:42:01.521Z,26.13
2022-08-09T18:47:11.280Z,26.07
2022-08-09T18:52:34.675Z,26.03
2022-08-09T18:57:43.431Z,25.99
2022-08-09T19:02:49.885Z,25.96
2022-08-09T19:08:03.883Z,25.91
2022-08-09T19:13:20.369Z,25.87
2022-08-09T19:18:33.839Z,25.85
2022-08-09T19:24:32.674Z,25.83
2022-08-09T19:29:15.227Z,25.81
2022-08-09T19:34:24.465Z,25.81
2022-08-09T19:39:42.851Z,25.80
2022-08-09T19:44:57.877Z,25.78
2022-08-09T19:50:06.716Z,25.77
2022-08-09T19:55:31.043Z,25.75
2022-08-09T20:00:48.402Z,25.73
2022-08-09T20:05:52.253Z,25.78
2022-08-09T20:10:55.888Z,25.78
2022-08-09T20:16:37.028Z,25.79
2022-08-09T20:21:40.747Z,25.72
2022-08-09T20:26:48.780Z,25.69
2022-08-09T20:32:29.378Z,25.67
2022-08-09T20:37:17.334Z,25.64
2022-08-09T20:42:25.127Z,25.61
2022-08-09T20:47:45.775Z,25.59
2022-08-09T20:52:51.248Z,25.57
2022-08-09T20:58:07.774Z,25.54
2022-08-09T21:03:11.932Z,25.50
2022-08-09T21:08:23.068Z,25.48
2022-08-09T21:13:58.980Z,25.51
2022-08-09T21:20:18.156Z,25.47
2022-08-09T21:24:28.948Z,25.46
2022-08-09T21:29:49.112Z,25.44
2022-08-09T21:34:54.279Z,25.42
2022-08-09T21:39:58.231Z,25.39
2022-08-09T21:45:02.185Z,25.36
2022-08-09T21:50:06.363Z,25.33
2022-08-09T21:55:10.018Z,25.34
2022-08-09T22:00:31.767Z,25.35
2022-08-09T22:05:41.992Z,25.32
2022-08-09T22:11:00.763Z,25.33
2022-08-09T22:16:11.858Z,25.36
2022-08-09T22:21:21.960Z,25.38
2022-08-09T22:26:34.742Z,25.39
2022-08-09T22:31:44.112Z,25.40
2022-08-09T22:36:57.825Z,25.40
2022-08-09T22:42:01.523Z,25.40
2022-08-09T22:48:10.396Z,25.41
2022-08-09T22:52:33.187Z,25.41
2022-08-09T22:57:44.323Z,25.39
2022-08-09T23:03:03.641Z,25.36
2022-08-09T23:08:22.380Z,25.39
2022-08-09T23:13:33.495Z,25.36
2022-08-09T23:18:37.156Z,25.34
2022-08-09T23:23:41.241Z,25.33
2022-08-09T23:28:46.598Z,25.33
2022-08-09T23:33:56.394Z,25.36
2022-08-09T23:39:00.176Z,25.35
2022-08-09T23:44:04.431Z,25.37
2022-08-09T23:49:08.037Z,25.41
2022-08-09T23:54:12.174Z,25.43
2022-08-09T23:59:16.046Z,25.44
